CheckWX is a tool to help pilots better visualize weather data.  It is not intended as a substitute for an official pre-flight weather briefing.

18:12:57 UTC

ESMQ TAF
Kalmar Airport
Sweden
TAF ESMQ 171730Z 1718/1723 VRB02KT CAVOK PROB40 1720/1723 0300 BCFG

Feb-17@
18:00 UTC

Feb-17 @ 18:00 UTC

Feb-17@
23:00 UTC

Feb-17 @ 23:00 UTC

TAF ESMQ 171730Z 1718/1723 VRB02KT CAVOK
Wind
  • Variable at 2 KTS
Visibility
10,000+ meters
Conditions
No significant weather
Cloud Levels
  • No significant clouds

Feb-17@
20:00 UTC

Feb-17 @ 20:00 UTC

Feb-17@
23:00 UTC

Feb-17 @ 23:00 UTC

PROB40 1720/1723 0300 BCFG

Probable - 40% Likelihood

Probable - 40% Likelihood during this time.

Visibility
306 meters
Conditions
Patches of Fog